createdAt,value
2023-04-22T00:01:46.762Z,8.75
2023-04-22T00:03:48.351Z,8.52
2023-04-22T00:05:53.138Z,9.02
2023-04-22T00:07:54.704Z,8.27
2023-04-22T00:12:03.250Z,9.03
2023-04-22T00:14:07.627Z,7.70
2023-04-22T00:16:09.163Z,8.70
2023-04-22T00:18:15.091Z,8.13
2023-04-22T00:20:23.231Z,8.02
2023-04-22T00:22:27.640Z,9.50
2023-04-22T00:24:31.936Z,8.27
2023-04-22T00:26:33.666Z,8.40
2023-04-22T00:28:35.221Z,8.35
2023-04-22T00:30:39.281Z,9.13
2023-04-22T00:32:43.668Z,8.60
2023-04-22T00:34:45.638Z,8.18
2023-04-22T00:36:47.140Z,7.63
2023-04-22T00:38:51.690Z,8.52
2023-04-22T00:40:56.536Z,7.90
2023-04-22T00:43:01.224Z,9.75
2023-04-22T00:45:09.897Z,8.27
2023-04-22T00:47:14.213Z,7.75
2023-04-22T00:49:16.014Z,7.40
2023-04-22T00:51:20.600Z,8.57
2023-04-22T00:53:24.981Z,8.57
2023-04-22T00:55:29.785Z,8.98
2023-04-22T00:57:32.615Z,8.77
2023-04-22T00:59:37.063Z,7.28
2023-04-22T01:01:41.674Z,6.85
2023-04-22T01:03:43.387Z,8.80
2023-04-22T01:05:48.524Z,8.02
2023-04-22T01:07:52.818Z,8.55
2023-04-22T01:12:01.703Z,7.13
2023-04-22T01:14:06.235Z,9.48
2023-04-22T01:16:10.928Z,9.00
2023-04-22T01:18:15.588Z,8.20
2023-04-22T01:20:17.060Z,8.13
2023-04-22T01:22:44.304Z,8.60
2023-04-22T01:24:45.904Z,7.70
2023-04-22T01:27:06.203Z,9.48
2023-04-22T01:29:10.858Z,10.85
2023-04-22T01:31:15.511Z,10.63
2023-04-22T01:33:17.330Z,9.95
2023-04-22T01:35:21.631Z,10.77
2023-04-22T01:37:23.138Z,9.77
2023-04-22T01:39:27.621Z,10.02
2023-04-22T01:41:29.774Z,10.55
2023-04-22T01:43:31.312Z,9.63
2023-04-22T01:47:39.711Z,10.27
2023-04-22T01:49:44.078Z,9.20
2023-04-22T01:51:48.205Z,10.60
2023-04-22T01:53:52.683Z,10.73
2023-04-22T01:55:54.217Z,9.80
2023-04-22T02:00:00.376Z,9.52
2023-04-22T02:02:01.941Z,9.82
2023-04-22T02:06:10.346Z,10.13
2023-04-22T02:08:30.770Z,9.23
2023-04-22T02:10:32.477Z,10.25
2023-04-22T02:12:52.454Z,10.55
2023-04-22T02:14:53.886Z,10.55
2023-04-22T02:16:58.361Z,12.43
2023-04-22T02:19:18.470Z,10.23
2023-04-22T02:21:22.976Z,10.45
2023-04-22T02:23:24.905Z,10.63
2023-04-22T02:25:27.002Z,9.90
2023-04-22T02:27:28.416Z,12.63
2023-04-22T02:29:32.017Z,11.02
2023-04-22T02:31:36.391Z,10.85
2023-04-22T02:33:40.700Z,11.60
2023-04-22T02:35:45.517Z,10.43
2023-04-22T02:37:46.944Z,9.48
2023-04-22T02:39:49.199Z,9.52
2023-04-22T02:41:53.453Z,8.15
2023-04-22T02:43:54.978Z,8.02
2023-04-22T02:45:59.123Z,7.65
2023-04-22T02:48:00.641Z,7.13
2023-04-22T02:50:02.232Z,7.45
2023-04-22T02:52:06.282Z,7.53
2023-04-22T02:54:10.733Z,7.07
2023-04-22T02:58:18.844Z,8.02
2023-04-22T03:02:24.608Z,8.13
2023-04-22T03:04:29.088Z,7.28
2023-04-22T03:06:31.097Z,8.52
2023-04-22T03:08:32.607Z,8.20
2023-04-22T03:10:34.032Z,7.60
2023-04-22T03:12:35.509Z,7.95
2023-04-22T03:14:39.487Z,7.78
2023-04-22T03:16:41.335Z,8.65
2023-04-22T03:18:42.812Z,8.93
2023-04-22T03:21:02.852Z,9.38
2023-04-22T03:23:12.108Z,7.50
2023-04-22T03:25:33.801Z,10.00
2023-04-22T03:27:38.377Z,9.43
2023-04-22T03:29:40.183Z,9.07
2023-04-22T03:31:42.883Z,9.05
2023-04-22T03:33:44.527Z,8.73
2023-04-22T03:35:49.823Z,9.32
2023-04-22T03:37:54.195Z,8.95
2023-04-22T03:39:55.840Z,8.65
2023-04-22T03:41:57.498Z,8.85
2023-04-22T03:46:07.093Z,10.07
2023-04-22T03:48:11.437Z,8.70
2023-04-22T03:50:15.733Z,9.85
2023-04-22T03:52:17.314Z,12.00
2023-04-22T03:54:37.393Z,9.93
2023-04-22T03:56:41.568Z,9.20
2023-04-22T03:58:43.222Z,9.88
2023-04-22T04:00:47.475Z,9.18
2023-04-22T04:04:53.888Z,9.38
2023-04-22T04:06:56.570Z,9.60
2023-04-22T04:08:58.528Z,10.05
2023-04-22T04:11:02.623Z,9.57
2023-04-22T04:13:07.147Z,9.57
2023-04-22T04:15:27.392Z,9.98
2023-04-22T04:17:31.449Z,10.55
2023-04-22T04:19:33.051Z,10.77
2023-04-22T04:21:34.552Z,10.38
2023-04-22T04:26:01.195Z,10.18
2023-04-22T04:28:02.764Z,10.80
2023-04-22T04:30:07.645Z,10.55
2023-04-22T04:32:09.963Z,11.10
2023-04-22T04:34:11.618Z,10.77
2023-04-22T04:36:16.182Z,11.00
2023-04-22T04:38:20.188Z,10.65
2023-04-22T04:40:21.943Z,9.57
2023-04-22T04:42:24.413Z,11.77
2023-04-22T04:44:31.732Z,10.57
2023-04-22T04:46:34.694Z,11.00
2023-04-22T04:48:36.651Z,10.77
2023-04-22T04:50:56.637Z,11.02
2023-04-22T04:52:58.125Z,10.27
2023-04-22T04:54:59.710Z,11.20
2023-04-22T04:59:23.860Z,12.00
2023-04-22T05:01:27.909Z,10.90
2023-04-22T05:03:29.447Z,11.13
2023-04-22T05:05:33.886Z,11.63
2023-04-22T05:07:35.707Z,12.02
2023-04-22T05:09:38.149Z,11.52
2023-04-22T05:11:39.783Z,11.35
2023-04-22T05:14:00.303Z,12.30
2023-04-22T05:16:01.879Z,12.18
2023-04-22T05:20:10.922Z,10.05
2023-04-22T05:22:15.088Z,11.45
2023-04-22T05:24:16.662Z,11.95
2023-04-22T05:26:21.263Z,12.40
2023-04-22T05:28:25.719Z,12.77
2023-04-22T05:30:30.005Z,11.05
2023-04-22T05:32:50.324Z,11.45
2023-04-22T05:35:10.820Z,12.98
2023-04-22T05:37:12.362Z,10.93
2023-04-22T05:39:13.955Z,11.50
2023-04-22T05:41:15.773Z,12.63
2023-04-22T05:43:17.358Z,12.43
2023-04-22T05:45:18.925Z,12.70
2023-04-22T05:49:27.092Z,14.30
2023-04-22T05:51:31.294Z,11.82
2023-04-22T05:55:39.544Z,12.60
2023-04-22T05:57:40.965Z,12.82
2023-04-22T06:01:49.973Z,11.98
2023-04-22T06:03:54.426Z,12.52
2023-04-22T06:05:56.116Z,11.98
2023-04-22T06:08:00.813Z,12.20
2023-04-22T06:12:07.976Z,12.23
2023-04-22T06:14:27.904Z,13.13
2023-04-22T06:16:29.694Z,13.25
2023-04-22T06:18:32.467Z,13.32
2023-04-22T06:20:35.853Z,12.77
2023-04-22T06:22:40.161Z,13.50
2023-04-22T06:24:41.618Z,13.60
2023-04-22T06:26:43.047Z,13.57
2023-04-22T06:28:49.142Z,13.82
2023-04-22T06:31:02.680Z,13.77
2023-04-22T06:33:17.461Z,14.00
2023-04-22T06:35:28.789Z,14.85
2023-04-22T06:37:38.533Z,14.25
2023-04-22T06:39:51.292Z,14.15
2023-04-22T06:42:03.694Z,15.38
2023-04-22T06:44:13.736Z,14.93
2023-04-22T06:46:23.551Z,14.45
2023-04-22T06:48:30.348Z,15.30
2023-04-22T06:50:42.324Z,15.65
2023-04-22T06:52:55.016Z,15.57
2023-04-22T06:55:22.813Z,14.80
2023-04-22T06:57:35.540Z,15.70
2023-04-22T06:59:46.801Z,15.23
2023-04-22T07:02:00.771Z,14.25
2023-04-22T07:04:13.122Z,13.85
2023-04-22T07:06:19.138Z,15.60
2023-04-22T07:08:20.728Z,14.55
2023-04-22T07:10:22.305Z,15.50
2023-04-22T07:12:25.740Z,15.15
2023-04-22T07:14:30.376Z,15.38
2023-04-22T07:16:32.079Z,18.38
2023-04-22T07:18:36.469Z,16.63
2023-04-22T07:20:38.058Z,17.88
2023-04-22T07:22:39.529Z,16.25
2023-04-22T07:24:43.900Z,16.85
2023-04-22T07:27:04.029Z,17.08
2023-04-22T07:29:05.844Z,17.88
2023-04-22T07:31:10.072Z,16.77
2023-04-22T07:33:14.472Z,19.10
2023-04-22T07:35:34.922Z,18.05
2023-04-22T07:37:36.476Z,17.52
2023-04-22T07:39:38.182Z,18.25
2023-04-22T07:41:39.952Z,17.55
2023-04-22T07:43:44.006Z,18.40
2023-04-22T07:45:45.601Z,18.85
2023-04-22T07:47:47.110Z,17.77
2023-04-22T07:49:49.269Z,18.33
2023-04-22T07:51:51.003Z,16.00
2023-04-22T07:53:52.532Z,20.23
2023-04-22T07:55:54.910Z,20.92
2023-04-22T07:57:56.396Z,22.20
2023-04-22T07:59:58.005Z,22.50
2023-04-22T08:01:59.437Z,23.23
2023-04-22T08:04:01.260Z,26.38
2023-04-22T08:06:03.073Z,24.95
2023-04-22T08:08:04.913Z,25.73
2023-04-22T08:10:09.404Z,24.70
2023-04-22T08:12:11.055Z,24.65
2023-04-22T08:14:15.429Z,26.08
2023-04-22T08:18:23.393Z,27.38
2023-04-22T08:20:25.732Z,28.00
2023-04-22T08:22:30.222Z,26.05
2023-04-22T08:24:34.269Z,27.80
2023-04-22T08:26:39.961Z,26.45
2023-04-22T08:28:42.321Z,26.73
2023-04-22T08:30:43.899Z,28.77
2023-04-22T08:32:48.428Z,27.02
2023-04-22T08:34:51.863Z,26.52
2023-04-22T08:36:58.340Z,26.45
2023-04-22T08:39:18.656Z,27.35
2023-04-22T08:41:24.565Z,26.80
2023-04-22T08:43:32.472Z,28.10
2023-04-22T08:45:34.110Z,29.88
2023-04-22T08:47:39.358Z,27.48
2023-04-22T08:49:44.072Z,27.67
2023-04-22T08:52:04.012Z,27.95
2023-04-22T08:54:24.451Z,27.58
2023-04-22T08:56:29.125Z,26.60
2023-04-22T08:58:34.256Z,28.45
2023-04-22T09:00:42.220Z,27.20
2023-04-22T09:02:45.150Z,26.92
2023-04-22T09:04:50.708Z,25.83
2023-04-22T09:06:52.420Z,24.88
2023-04-22T09:08:55.060Z,543.13
2023-04-22T09:10:57.670Z,550.17
2023-04-22T09:13:00.272Z,574.55
2023-04-22T09:15:20.296Z,599.55
2023-04-22T09:17:34.228Z,607.10
2023-04-22T09:19:35.774Z,632.38
2023-04-22T09:21:37.823Z,640.75
2023-04-22T09:23:51.925Z,646.30
2023-04-22T09:25:53.490Z,618.25
2023-04-22T09:27:56.589Z,598.60
2023-04-22T09:29:58.145Z,570.05
2023-04-22T09:32:00.127Z,541.60
2023-04-22T09:34:09.997Z,461.23
2023-04-22T09:36:27.478Z,396.37
2023-04-22T09:38:42.363Z,365.23
2023-04-22T09:41:00.353Z,358.53
2023-04-22T09:43:18.867Z,352.60
2023-04-22T09:45:44.173Z,358.27
2023-04-22T09:47:56.918Z,366.97
2023-04-22T09:50:13.359Z,403.33
2023-04-22T09:52:30.487Z,436.83
2023-04-22T09:54:45.742Z,403.00
2023-04-22T09:57:17.324Z,434.37
2023-04-22T09:59:28.506Z,449.37
2023-04-22T10:01:48.375Z,468.97
2023-04-22T10:03:57.987Z,473.83
2023-04-22T10:06:03.952Z,420.83
2023-04-22T10:08:13.111Z,388.60
2023-04-22T10:10:19.324Z,351.30
2023-04-22T10:12:32.944Z,327.73
2023-04-22T10:14:39.841Z,300.47
2023-04-22T10:16:46.329Z,272.83
2023-04-22T10:20:50.136Z,218.83
2023-04-22T10:22:56.050Z,210.30
2023-04-22T10:25:00.315Z,204.37
2023-04-22T10:27:21.420Z,180.73
2023-04-22T10:29:26.621Z,174.03
2023-04-22T10:31:31.200Z,171.57
2023-04-22T10:34:08.563Z,157.70
2023-04-22T10:36:15.819Z,149.03
2023-04-22T10:38:17.200Z,143.90
2023-04-22T10:40:22.854Z,136.93
2023-04-22T10:42:28.472Z,132.37
2023-04-22T10:44:30.831Z,126.27
2023-04-22T10:46:33.154Z,125.00
2023-04-22T10:48:50.247Z,122.33
2023-04-22T10:50:52.953Z,116.03
2023-04-22T10:52:58.532Z,116.73
2023-04-22T10:55:00.199Z,122.40
2023-04-22T10:57:05.076Z,115.40
2023-04-22T10:59:16.661Z,112.80
2023-04-22T11:01:18.155Z,113.73
2023-04-22T11:03:26.258Z,112.90
2023-04-22T11:05:28.041Z,117.07
2023-04-22T11:07:31.759Z,116.87
2023-04-22T11:09:33.812Z,75.18
2023-04-22T11:11:38.000Z,85.73
2023-04-22T11:13:41.589Z,85.70
2023-04-22T11:15:44.512Z,3.10
2023-04-22T11:17:46.664Z,6.20
2023-04-22T11:19:48.255Z,4.33
2023-04-22T11:21:53.262Z,4.37
2023-04-22T11:23:54.770Z,7.75
2023-04-22T11:25:57.560Z,9.88
2023-04-22T11:28:01.715Z,9.13
2023-04-22T11:30:09.224Z,9.45
2023-04-22T11:32:13.968Z,9.43
2023-04-22T11:34:15.663Z,9.10
2023-04-22T11:36:19.386Z,9.13
2023-04-22T11:38:23.933Z,9.05
2023-04-22T11:40:32.108Z,8.68
2023-04-22T11:42:38.424Z,8.25
2023-04-22T11:44:40.178Z,8.13
2023-04-22T11:46:44.587Z,7.03
2023-04-22T11:49:11.712Z,7.88
2023-04-22T11:51:13.310Z,7.35
2023-04-22T11:53:16.096Z,6.90
2023-04-22T11:55:20.418Z,7.57
2023-04-22T11:57:40.960Z,6.47
2023-04-22T11:59:42.873Z,159.10
2023-04-22T12:01:47.585Z,143.67
2023-04-22T12:03:59.421Z,16.35
2023-04-22T12:06:04.569Z,226.90
2023-04-22T12:08:16.183Z,278.05
2023-04-22T12:10:17.653Z,8.40
2023-04-22T12:14:32.013Z,84.85
2023-04-22T12:16:40.036Z,9.18
2023-04-22T12:18:51.322Z,7.70
2023-04-22T12:20:59.446Z,8.98
2023-04-22T12:23:04.250Z,8.23
2023-04-22T12:25:06.146Z,8.00
2023-04-22T12:27:10.219Z,8.70
2023-04-22T12:29:14.371Z,8.85
2023-04-22T12:31:19.231Z,8.45
2023-04-22T12:33:23.731Z,8.68
2023-04-22T12:35:25.284Z,7.57
2023-04-22T12:37:27.461Z,7.85
2023-04-22T12:39:29.529Z,6.60
2023-04-22T12:41:37.599Z,7.82
2023-04-22T12:43:49.338Z,7.55
2023-04-22T12:46:01.638Z,6.97
2023-04-22T12:48:11.798Z,7.40
2023-04-22T12:50:22.685Z,7.35
2023-04-22T12:52:35.913Z,8.50
2023-04-22T12:54:46.289Z,8.98
2023-04-22T12:56:58.184Z,8.27
2023-04-22T12:59:07.738Z,8.48
2023-04-22T13:01:21.769Z,10.05
2023-04-22T13:03:33.170Z,9.88
2023-04-22T13:05:42.139Z,9.70
2023-04-22T13:08:05.814Z,10.50
2023-04-22T13:10:16.807Z,9.70
2023-04-22T13:12:28.081Z,11.57
2023-04-22T13:14:43.053Z,11.55
2023-04-22T13:16:50.313Z,11.27
2023-04-22T13:18:52.878Z,9.95
2023-04-22T13:22:58.544Z,8.52
2023-04-22T13:25:00.011Z,10.35
2023-04-22T13:27:20.133Z,10.52
2023-04-22T13:29:21.690Z,9.95
2023-04-22T13:31:25.773Z,9.93
2023-04-22T13:33:27.335Z,8.65
2023-04-22T13:35:31.549Z,9.30
2023-04-22T13:37:51.393Z,9.65
2023-04-22T13:39:52.938Z,10.38
2023-04-22T13:41:57.361Z,8.88
2023-04-22T13:44:03.874Z,9.45
2023-04-22T13:46:05.443Z,9.52
2023-04-22T13:48:06.921Z,9.02
2023-04-22T13:50:11.106Z,10.60
2023-04-22T13:52:12.632Z,8.90
2023-04-22T13:54:33.008Z,10.20
2023-04-22T13:56:53.491Z,8.45
2023-04-22T13:58:55.229Z,7.45
2023-04-22T14:01:15.143Z,7.43
2023-04-22T14:03:19.482Z,6.65
2023-04-22T14:05:21.061Z,6.60
2023-04-22T14:07:25.198Z,6.57
2023-04-22T14:09:29.345Z,5.93
2023-04-22T14:11:31.424Z,5.22
2023-04-22T14:13:33.224Z,4.82
2023-04-22T14:15:34.914Z,4.13
2023-04-22T14:17:36.712Z,4.15
2023-04-22T14:19:41.573Z,2.92
2023-04-22T14:21:43.436Z,3.50
2023-04-22T14:24:03.733Z,3.55
2023-04-22T14:26:06.265Z,4.78
2023-04-22T14:28:16.839Z,3.50
2023-04-22T14:30:18.296Z,3.20
2023-04-22T14:32:20.409Z,3.00
2023-04-22T14:34:24.629Z,3.38
2023-04-22T14:36:27.654Z,2.80
2023-04-22T14:38:29.699Z,3.30
2023-04-22T14:40:33.884Z,3.65
2023-04-22T14:42:38.593Z,3.70
2023-04-22T14:44:40.384Z,3.65
2023-04-22T14:46:41.852Z,3.58
2023-04-22T14:48:46.463Z,3.17
2023-04-22T14:50:47.893Z,4.05
2023-04-22T14:53:08.032Z,4.15
2023-04-22T14:57:42.219Z,2.45
2023-04-22T15:00:02.094Z,3.10
2023-04-22T15:02:15.688Z,2.83
2023-04-22T15:04:20.401Z,3.20
2023-04-22T15:06:22.372Z,2.78
2023-04-22T15:08:25.456Z,2.85
2023-04-22T15:10:45.700Z,2.78
2023-04-22T15:12:50.135Z,2.78
2023-04-22T15:14:54.505Z,3.28
2023-04-22T15:16:55.946Z,3.00
2023-04-22T15:18:57.695Z,3.38
2023-04-22T15:20:59.129Z,3.40
2023-04-22T15:23:01.193Z,3.38
2023-04-22T15:25:05.447Z,3.28
2023-04-22T15:27:09.760Z,2.80
2023-04-22T15:29:11.301Z,2.88
2023-04-22T15:31:12.906Z,3.67
2023-04-22T15:33:33.005Z,3.55
2023-04-22T15:37:41.353Z,3.53
2023-04-22T15:39:45.303Z,3.42
2023-04-22T15:41:46.950Z,3.33
2023-04-22T15:43:51.412Z,3.53
2023-04-22T15:45:56.511Z,3.42
2023-04-22T15:48:03.556Z,3.30
2023-04-22T15:50:17.368Z,4.35
2023-04-22T15:52:28.315Z,4.10
2023-04-22T15:54:38.236Z,3.88
2023-04-22T15:56:48.007Z,3.75
2023-04-22T15:58:53.358Z,4.53
2023-04-22T16:01:17.892Z,4.07
2023-04-22T16:03:28.897Z,4.25
2023-04-22T16:05:37.036Z,4.75
2023-04-22T16:07:49.201Z,4.20
2023-04-22T16:09:58.923Z,4.22
2023-04-22T16:12:07.734Z,4.40
2023-04-22T16:14:14.974Z,4.65
2023-04-22T16:16:22.898Z,4.88
2023-04-22T16:18:34.864Z,5.03
2023-04-22T16:20:43.992Z,4.85
2023-04-22T16:22:53.048Z,4.22
2023-04-22T16:24:55.588Z,6.32
2023-04-22T16:26:57.137Z,5.65
2023-04-22T16:28:58.644Z,5.72
2023-04-22T16:31:00.657Z,5.57
2023-04-22T16:33:04.993Z,5.05
2023-04-22T16:35:10.354Z,5.68
2023-04-22T16:37:11.790Z,5.50
2023-04-22T16:39:13.316Z,5.05
2023-04-22T16:41:17.993Z,5.80
2023-04-22T16:43:19.499Z,6.85
2023-04-22T16:45:21.567Z,5.53
2023-04-22T16:47:26.427Z,5.90
2023-04-22T16:49:30.402Z,5.57
2023-04-22T16:51:31.889Z,6.28
2023-04-22T16:53:33.373Z,5.85
2023-04-22T16:55:36.873Z,5.47
2023-04-22T16:57:41.242Z,5.32
2023-04-22T16:59:45.662Z,5.82
2023-04-22T17:01:47.153Z,5.38
2023-04-22T17:03:51.553Z,5.45
2023-04-22T17:05:53.368Z,5.07
2023-04-22T17:07:57.770Z,5.53
2023-04-22T17:10:01.941Z,5.68
2023-04-22T17:12:06.505Z,4.75
2023-04-22T17:14:08.015Z,4.40
2023-04-22T17:16:11.068Z,4.93
2023-04-22T17:18:16.487Z,5.85
2023-04-22T17:20:37.381Z,5.15
2023-04-22T17:22:38.818Z,5.95
2023-04-22T17:24:43.329Z,4.43
2023-04-22T17:26:47.583Z,4.88
2023-04-22T17:28:48.970Z,4.65
2023-04-22T17:30:50.606Z,5.20
2023-04-22T17:32:54.758Z,4.32
2023-04-22T17:34:56.335Z,4.75
2023-04-22T17:36:57.776Z,4.43
2023-04-22T17:39:17.533Z,4.38
2023-04-22T17:41:19.223Z,3.88
2023-04-22T17:43:23.952Z,4.53
2023-04-22T17:45:25.474Z,5.07
2023-04-22T17:47:27.032Z,5.30
2023-04-22T17:49:28.552Z,6.13
2023-04-22T17:51:33.264Z,7.00
2023-04-22T17:53:34.801Z,6.22
2023-04-22T17:55:36.615Z,5.47
2023-04-22T17:57:38.201Z,6.47
2023-04-22T17:59:42.826Z,6.20
2023-04-22T18:01:44.415Z,6.88
2023-04-22T18:03:48.966Z,6.70
2023-04-22T18:05:50.689Z,6.47
2023-04-22T18:07:58.619Z,6.57
2023-04-22T18:10:00.174Z,7.20
2023-04-22T18:12:05.659Z,7.55
2023-04-22T18:14:10.400Z,7.90
2023-04-22T18:16:14.521Z,8.07
2023-04-22T18:18:18.756Z,7.68
2023-04-22T18:20:20.239Z,9.30
2023-04-22T18:24:28.774Z,10.60
2023-04-22T18:26:30.303Z,12.20
2023-04-22T18:28:31.904Z,12.93
2023-04-22T18:30:33.429Z,13.82
2023-04-22T18:32:35.809Z,14.73
2023-04-22T18:34:40.911Z,14.35
2023-04-22T18:36:42.747Z,15.38
2023-04-22T18:39:04.585Z,15.52
2023-04-22T18:41:06.185Z,14.98
2023-04-22T18:45:30.044Z,17.13
2023-04-22T18:49:38.830Z,17.92
2023-04-22T18:51:42.012Z,19.40
2023-04-22T18:53:51.026Z,19.33
2023-04-22T18:56:04.647Z,19.63
2023-04-22T18:58:19.458Z,20.55
2023-04-22T19:00:29.786Z,20.90
2023-04-22T19:05:09.065Z,22.67
2023-04-22T19:07:15.697Z,25.00
2023-04-22T19:09:33.297Z,26.13
2023-04-22T19:11:51.689Z,26.10
2023-04-22T19:14:04.589Z,25.65
2023-04-22T19:16:11.448Z,27.02
2023-04-22T19:18:22.393Z,26.40
2023-04-22T19:20:35.204Z,26.17
2023-04-22T19:22:47.340Z,24.58
2023-04-22T19:25:03.383Z,24.95
2023-04-22T19:27:23.581Z,24.85
2023-04-22T19:29:31.676Z,21.88
2023-04-22T19:31:34.328Z,22.23
2023-04-22T19:33:36.284Z,22.05
2023-04-22T19:35:37.849Z,21.40
2023-04-22T19:37:39.329Z,21.80
2023-04-22T19:39:41.037Z,20.35
2023-04-22T19:41:45.911Z,21.20
2023-04-22T19:43:50.265Z,20.63
2023-04-22T19:45:54.714Z,20.27
2023-04-22T19:47:56.702Z,19.35
2023-04-22T19:50:01.453Z,20.85
2023-04-22T19:52:09.049Z,20.83
2023-04-22T19:54:13.252Z,20.77
2023-04-22T19:56:15.474Z,18.30
2023-04-22T19:58:16.967Z,19.83
2023-04-22T20:00:21.809Z,19.80
2023-04-22T20:02:26.733Z,19.27
2023-04-22T20:04:32.453Z,18.00
2023-04-22T20:06:37.595Z,18.55
2023-04-22T20:08:42.079Z,16.83
2023-04-22T20:10:44.977Z,17.05
2023-04-22T20:12:46.626Z,16.60
2023-04-22T20:14:51.147Z,16.13
2023-04-22T20:16:53.277Z,12.98
2023-04-22T20:18:55.283Z,14.68
2023-04-22T20:21:00.016Z,12.43
2023-04-22T20:23:10.240Z,12.30
2023-04-22T20:25:12.813Z,9.98
2023-04-22T20:27:17.260Z,9.27
2023-04-22T20:29:22.125Z,8.68
2023-04-22T20:31:26.662Z,6.32
2023-04-22T20:33:31.366Z,6.32
2023-04-22T20:35:35.447Z,5.32
2023-04-22T20:39:38.829Z,5.22
2023-04-22T20:41:40.518Z,3.55
2023-04-22T20:43:44.863Z,4.10
2023-04-22T20:45:49.066Z,3.58
2023-04-22T20:47:51.407Z,3.85
2023-04-22T20:49:56.323Z,3.05
2023-04-22T20:52:16.510Z,2.97
2023-04-22T20:54:28.437Z,4.38
2023-04-22T20:56:33.852Z,3.95
2023-04-22T20:58:35.288Z,3.25
2023-04-22T21:00:36.730Z,3.40
2023-04-22T21:02:39.196Z,2.42
2023-04-22T21:04:43.615Z,3.17
2023-04-22T21:06:45.389Z,2.08
2023-04-22T21:08:48.372Z,3.03
2023-04-22T21:11:08.428Z,2.65
2023-04-22T21:13:10.044Z,3.45
2023-04-22T21:15:11.878Z,2.55
2023-04-22T21:17:20.551Z,2.05
2023-04-22T21:19:25.283Z,2.42
2023-04-22T21:21:31.605Z,2.38
2023-04-22T21:23:36.257Z,2.65
2023-04-22T21:25:39.023Z,2.65
2023-04-22T21:27:59.237Z,2.15
2023-04-22T21:30:19.948Z,2.40
2023-04-22T21:32:24.575Z,3.15
2023-04-22T21:34:28.659Z,2.83
2023-04-22T21:36:33.141Z,2.00
2023-04-22T21:38:37.364Z,4.78
2023-04-22T21:40:42.057Z,2.20
2023-04-22T21:42:46.324Z,3.45
2023-04-22T21:44:49.889Z,3.10
2023-04-22T21:46:53.947Z,2.47
2023-04-22T21:48:58.466Z,2.92
2023-04-22T21:50:59.870Z,2.63
2023-04-22T21:53:04.354Z,2.65
2023-04-22T21:55:07.572Z,2.58
2023-04-22T21:57:12.325Z,2.78
2023-04-22T21:59:15.740Z,2.72
2023-04-22T22:01:28.555Z,2.90
2023-04-22T22:03:45.888Z,2.53
2023-04-22T22:06:03.039Z,3.50
2023-04-22T22:08:18.043Z,3.13
2023-04-22T22:10:27.712Z,2.92
2023-04-22T22:12:36.734Z,2.42
2023-04-22T22:14:48.331Z,1.67
2023-04-22T22:16:56.794Z,2.13
2023-04-22T22:19:12.288Z,3.72
2023-04-22T22:21:41.922Z,3.25
2023-04-22T22:24:00.812Z,5.38
2023-04-22T22:26:17.696Z,3.05
2023-04-22T22:28:32.999Z,4.55
2023-04-22T22:30:45.757Z,4.18
2023-04-22T22:32:48.697Z,4.97
2023-04-22T22:34:52.742Z,4.32
2023-04-22T22:36:57.769Z,3.45
2023-04-22T22:38:59.358Z,3.70
2023-04-22T22:41:19.067Z,3.80
2023-04-22T22:43:23.114Z,2.85
2023-04-22T22:45:27.417Z,2.85
2023-04-22T22:47:28.892Z,3.72
2023-04-22T22:49:30.399Z,3.78
2023-04-22T22:53:54.680Z,2.92
2023-04-22T22:55:56.119Z,3.15
2023-04-22T22:57:57.916Z,4.00
2023-04-22T22:59:59.311Z,2.67
2023-04-22T23:02:00.893Z,3.67
2023-04-22T23:04:06.013Z,5.25
2023-04-22T23:06:27.224Z,5.05
2023-04-22T23:08:31.345Z,2.70
2023-04-22T23:10:32.912Z,2.85
2023-04-22T23:12:35.274Z,2.95
2023-04-22T23:14:40.671Z,6.25
2023-04-22T23:16:42.400Z,4.63
2023-04-22T23:19:02.978Z,3.38
2023-04-22T23:21:04.698Z,4.32
2023-04-22T23:23:09.075Z,4.20
2023-04-22T23:25:10.961Z,2.95
2023-04-22T23:27:15.315Z,2.97
2023-04-22T23:29:19.631Z,3.38
2023-04-22T23:31:24.061Z,3.13
2023-04-22T23:33:29.184Z,2.60
2023-04-22T23:35:36.392Z,4.00
2023-04-22T23:37:46.719Z,3.42
2023-04-22T23:39:50.817Z,3.80
2023-04-22T23:41:52.288Z,2.78
2023-04-22T23:43:54.034Z,3.38
2023-04-22T23:45:58.244Z,2.55
2023-04-22T23:48:00.000Z,5.30
2023-04-22T23:50:01.600Z,3.10
2023-04-22T23:52:07.035Z,3.08
2023-04-22T23:54:11.322Z,2.00
2023-04-22T23:56:31.353Z,2.60
2023-04-22T23:58:35.910Z,2.20
